sensor_id;sensor_type;location;lat;lon;timestamp;temperature;humidity
18361;SHT31;9308;48.550;9.108;2023-03-20T00:00:30;10.94;71.60
18361;SHT31;9308;48.550;9.108;2023-03-20T00:02:56;10.75;72.25
18361;SHT31;9308;48.550;9.108;2023-03-20T00:05:23;10.65;72.86
18361;SHT31;9308;48.550;9.108;2023-03-20T00:07:49;10.50;72.94
18361;SHT31;9308;48.550;9.108;2023-03-20T00:10:16;10.66;72.89
18361;SHT31;9308;48.550;9.108;2023-03-20T00:12:42;10.90;71.73
18361;SHT31;9308;48.550;9.108;2023-03-20T00:15:35;10.65;72.34
18361;SHT31;9308;48.550;9.108;2023-03-20T00:18:01;10.82;72.05
18361;SHT31;9308;48.550;9.108;2023-03-20T00:20:26;10.66;72.83
18361;SHT31;9308;48.550;9.108;2023-03-20T00:22:52;10.73;72.60
18361;SHT31;9308;48.550;9.108;2023-03-20T00:25:20;10.73;72.26
18361;SHT31;9308;48.550;9.108;2023-03-20T00:27:46;10.82;71.49
18361;SHT31;9308;48.550;9.108;2023-03-20T00:30:19;10.66;72.17
18361;SHT31;9308;48.550;9.108;2023-03-20T00:32:46;10.77;71.96
18361;SHT31;9308;48.550;9.108;2023-03-20T00:37:47;10.90;71.07
18361;SHT31;9308;48.550;9.108;2023-03-20T00:40:13;10.82;71.40
18361;SHT31;9308;48.550;9.108;2023-03-20T00:42:39;11.03;70.88
18361;SHT31;9308;48.550;9.108;2023-03-20T00:45:05;10.69;71.72
18361;SHT31;9308;48.550;9.108;2023-03-20T00:47:35;10.71;71.66
18361;SHT31;9308;48.550;9.108;2023-03-20T00:50:09;10.68;71.56
18361;SHT31;9308;48.550;9.108;2023-03-20T00:52:39;10.69;71.91
18361;SHT31;9308;48.550;9.108;2023-03-20T00:55:04;10.76;71.89
18361;SHT31;9308;48.550;9.108;2023-03-20T00:57:38;10.91;71.31
18361;SHT31;9308;48.550;9.108;2023-03-20T01:00:26;10.96;71.84
18361;SHT31;9308;48.550;9.108;2023-03-20T01:02:56;11.06;70.85
18361;SHT31;9308;48.550;9.108;2023-03-20T01:05:22;10.80;71.75
18361;SHT31;9308;48.550;9.108;2023-03-20T01:07:48;11.00;70.94
18361;SHT31;9308;48.550;9.108;2023-03-20T01:10:14;10.76;71.92
18361;SHT31;9308;48.550;9.108;2023-03-20T01:12:41;10.79;71.72
18361;SHT31;9308;48.550;9.108;2023-03-20T01:15:29;11.01;70.92
18361;SHT31;9308;48.550;9.108;2023-03-20T01:17:55;11.06;70.66
18361;SHT31;9308;48.550;9.108;2023-03-20T01:20:23;10.84;70.94
18361;SHT31;9308;48.550;9.108;2023-03-20T01:22:50;10.75;71.31
18361;SHT31;9308;48.550;9.108;2023-03-20T01:25:16;10.97;71.35
18361;SHT31;9308;48.550;9.108;2023-03-20T01:27:44;10.96;70.69
18361;SHT31;9308;48.550;9.108;2023-03-20T01:30:37;10.91;71.38
18361;SHT31;9308;48.550;9.108;2023-03-20T01:33:09;10.97;70.78
18361;SHT31;9308;48.550;9.108;2023-03-20T01:35:36;10.90;71.21
18361;SHT31;9308;48.550;9.108;2023-03-20T01:38:01;10.87;72.20
18361;SHT31;9308;48.550;9.108;2023-03-20T01:40:33;11.10;71.07
18361;SHT31;9308;48.550;9.108;2023-03-20T01:43:02;11.00;71.24
18361;SHT31;9308;48.550;9.108;2023-03-20T01:45:34;11.00;70.86
18361;SHT31;9308;48.550;9.108;2023-03-20T01:48:11;11.08;71.17
18361;SHT31;9308;48.550;9.108;2023-03-20T01:50:39;10.83;72.19
18361;SHT31;9308;48.550;9.108;2023-03-20T01:53:24;11.00;71.75
18361;SHT31;9308;48.550;9.108;2023-03-20T01:55:52;11.06;71.17
18361;SHT31;9308;48.550;9.108;2023-03-20T01:58:23;11.10;70.78
18361;SHT31;9308;48.550;9.108;2023-03-20T02:00:50;11.12;71.36
18361;SHT31;9308;48.550;9.108;2023-03-20T02:03:16;10.83;71.99
18361;SHT31;9308;48.550;9.108;2023-03-20T02:05:43;11.00;71.22
18361;SHT31;9308;48.550;9.108;2023-03-20T02:08:23;10.80;71.40
18361;SHT31;9308;48.550;9.108;2023-03-20T02:10:49;11.00;70.91
18361;SHT31;9308;48.550;9.108;2023-03-20T02:13:16;10.90;71.66
18361;SHT31;9308;48.550;9.108;2023-03-20T02:16:00;11.10;70.57
18361;SHT31;9308;48.550;9.108;2023-03-20T02:18:25;11.10;70.97
18361;SHT31;9308;48.550;9.108;2023-03-20T02:23:54;10.63;72.30
18361;SHT31;9308;48.550;9.108;2023-03-20T02:26:43;10.96;70.91
18361;SHT31;9308;48.550;9.108;2023-03-20T02:29:24;10.87;71.41
18361;SHT31;9308;48.550;9.108;2023-03-20T02:40:32;10.87;70.94
18361;SHT31;9308;48.550;9.108;2023-03-20T02:43:27;10.65;71.95
18361;SHT31;9308;48.550;9.108;2023-03-20T02:46:31;10.76;71.12
18361;SHT31;9308;48.550;9.108;2023-03-20T02:54:33;10.89;70.65
18361;SHT31;9308;48.550;9.108;2023-03-20T02:57:16;10.87;70.53
18361;SHT31;9308;48.550;9.108;2023-03-20T03:00:05;11.00;70.33
18361;SHT31;9308;48.550;9.108;2023-03-20T03:02:47;10.84;70.94
18361;SHT31;9308;48.550;9.108;2023-03-20T03:05:24;11.01;70.34
18361;SHT31;9308;48.550;9.108;2023-03-20T03:07:55;10.93;70.43
18361;SHT31;9308;48.550;9.108;2023-03-20T03:10:27;10.76;71.59
18361;SHT31;9308;48.550;9.108;2023-03-20T03:12:55;10.96;70.76
18361;SHT31;9308;48.550;9.108;2023-03-20T03:15:29;10.83;71.21
18361;SHT31;9308;48.550;9.108;2023-03-20T03:17:57;10.82;71.37
18361;SHT31;9308;48.550;9.108;2023-03-20T03:20:30;10.80;70.77
18361;SHT31;9308;48.550;9.108;2023-03-20T03:22:57;10.87;70.91
18361;SHT31;9308;48.550;9.108;2023-03-20T03:25:26;10.75;71.60
18361;SHT31;9308;48.550;9.108;2023-03-20T03:28:03;10.83;71.12
18361;SHT31;9308;48.550;9.108;2023-03-20T03:30:36;11.00;71.20
18361;SHT31;9308;48.550;9.108;2023-03-20T03:33:13;10.87;71.18
18361;SHT31;9308;48.550;9.108;2023-03-20T03:35:44;10.73;71.19
18361;SHT31;9308;48.550;9.108;2023-03-20T03:38:42;10.45;72.54
18361;SHT31;9308;48.550;9.108;2023-03-20T03:44:14;10.49;72.20
18361;SHT31;9308;48.550;9.108;2023-03-20T03:46:51;10.34;72.93
18361;SHT31;9308;48.550;9.108;2023-03-20T03:49:22;10.17;73.63
18361;SHT31;9308;48.550;9.108;2023-03-20T03:51:53;10.34;73.55
18361;SHT31;9308;48.550;9.108;2023-03-20T03:54:24;10.49;72.86
18361;SHT31;9308;48.550;9.108;2023-03-20T03:56:52;10.58;72.27
18361;SHT31;9308;48.550;9.108;2023-03-20T03:59:23;10.75;72.02
18361;SHT31;9308;48.550;9.108;2023-03-20T04:01:52;10.71;72.42
18361;SHT31;9308;48.550;9.108;2023-03-20T04:04:19;10.38;72.92
18361;SHT31;9308;48.550;9.108;2023-03-20T04:06:46;10.56;72.84
18361;SHT31;9308;48.550;9.108;2023-03-20T04:09:11;10.56;72.85
18361;SHT31;9308;48.550;9.108;2023-03-20T04:11:37;10.75;72.32
18361;SHT31;9308;48.550;9.108;2023-03-20T04:14:02;10.41;73.21
18361;SHT31;9308;48.550;9.108;2023-03-20T04:16:28;10.39;73.07
18361;SHT31;9308;48.550;9.108;2023-03-20T04:18:53;10.45;73.26
18361;SHT31;9308;48.550;9.108;2023-03-20T04:21:20;10.38;73.67
18361;SHT31;9308;48.550;9.108;2023-03-20T04:23:46;10.45;73.36
18361;SHT31;9308;48.550;9.108;2023-03-20T04:26:11;10.46;73.08
18361;SHT31;9308;48.550;9.108;2023-03-20T04:28:37;10.68;72.55
18361;SHT31;9308;48.550;9.108;2023-03-20T04:31:03;10.49;72.92
18361;SHT31;9308;48.550;9.108;2023-03-20T04:33:28;10.58;73.13
18361;SHT31;9308;48.550;9.108;2023-03-20T04:35:54;10.39;73.03
18361;SHT31;9308;48.550;9.108;2023-03-20T04:38:20;10.59;72.84
18361;SHT31;9308;48.550;9.108;2023-03-20T04:40:46;10.44;72.66
18361;SHT31;9308;48.550;9.108;2023-03-20T04:43:12;10.65;72.73
18361;SHT31;9308;48.550;9.108;2023-03-20T04:45:38;10.50;72.44
18361;SHT31;9308;48.550;9.108;2023-03-20T04:48:04;10.53;73.03
18361;SHT31;9308;48.550;9.108;2023-03-20T04:50:29;10.46;72.38
18361;SHT31;9308;48.550;9.108;2023-03-20T04:52:55;10.27;73.23
18361;SHT31;9308;48.550;9.108;2023-03-20T04:55:20;10.42;72.77
18361;SHT31;9308;48.550;9.108;2023-03-20T04:57:47;10.56;72.03
18361;SHT31;9308;48.550;9.108;2023-03-20T05:00:13;10.34;72.82
18361;SHT31;9308;48.550;9.108;2023-03-20T05:02:38;10.42;72.50
18361;SHT31;9308;48.550;9.108;2023-03-20T05:05:04;10.53;71.77
18361;SHT31;9308;48.550;9.108;2023-03-20T05:07:30;10.31;72.02
18361;SHT31;9308;48.550;9.108;2023-03-20T05:09:55;10.34;72.06
18361;SHT31;9308;48.550;9.108;2023-03-20T05:12:21;10.24;72.30
18361;SHT31;9308;48.550;9.108;2023-03-20T05:14:47;10.32;72.13
18361;SHT31;9308;48.550;9.108;2023-03-20T05:17:12;10.27;72.21
18361;SHT31;9308;48.550;9.108;2023-03-20T05:19:37;10.25;71.93
18361;SHT31;9308;48.550;9.108;2023-03-20T05:22:03;10.22;72.59
18361;SHT31;9308;48.550;9.108;2023-03-20T05:24:29;10.27;71.85
18361;SHT31;9308;48.550;9.108;2023-03-20T05:26:55;10.24;72.07
18361;SHT31;9308;48.550;9.108;2023-03-20T05:29:21;10.34;72.28
18361;SHT31;9308;48.550;9.108;2023-03-20T05:31:47;10.46;71.54
18361;SHT31;9308;48.550;9.108;2023-03-20T05:34:13;10.36;72.04
18361;SHT31;9308;48.550;9.108;2023-03-20T05:36:38;10.18;72.36
18361;SHT31;9308;48.550;9.108;2023-03-20T05:39:04;10.35;71.73
18361;SHT31;9308;48.550;9.108;2023-03-20T05:41:29;10.29;71.85
18361;SHT31;9308;48.550;9.108;2023-03-20T05:43:55;10.15;72.52
18361;SHT31;9308;48.550;9.108;2023-03-20T05:46:20;10.46;71.23
18361;SHT31;9308;48.550;9.108;2023-03-20T05:48:47;10.48;71.21
18361;SHT31;9308;48.550;9.108;2023-03-20T05:51:12;10.44;70.97
18361;SHT31;9308;48.550;9.108;2023-03-20T05:53:38;10.31;71.78
18361;SHT31;9308;48.550;9.108;2023-03-20T05:56:04;10.44;71.71
18361;SHT31;9308;48.550;9.108;2023-03-20T05:58:29;10.59;70.57
18361;SHT31;9308;48.550;9.108;2023-03-20T06:00:56;10.61;71.13
18361;SHT31;9308;48.550;9.108;2023-03-20T06:03:22;10.84;70.66
18361;SHT31;9308;48.550;9.108;2023-03-20T06:05:47;10.79;70.72
18361;SHT31;9308;48.550;9.108;2023-03-20T06:08:13;10.86;70.61
18361;SHT31;9308;48.550;9.108;2023-03-20T06:10:40;10.77;71.08
18361;SHT31;9308;48.550;9.108;2023-03-20T06:13:05;10.58;71.63
18361;SHT31;9308;48.550;9.108;2023-03-20T06:15:31;10.82;71.13
18361;SHT31;9308;48.550;9.108;2023-03-20T06:17:56;10.68;71.43
18361;SHT31;9308;48.550;9.108;2023-03-20T06:20:23;10.66;71.68
18361;SHT31;9308;48.550;9.108;2023-03-20T06:22:48;10.50;72.24
18361;SHT31;9308;48.550;9.108;2023-03-20T06:25:14;10.84;71.03
18361;SHT31;9308;48.550;9.108;2023-03-20T06:27:39;10.86;71.16
18361;SHT31;9308;48.550;9.108;2023-03-20T06:30:05;10.89;71.09
18361;SHT31;9308;48.550;9.108;2023-03-20T06:32:31;10.66;71.97
18361;SHT31;9308;48.550;9.108;2023-03-20T06:34:57;10.84;71.68
18361;SHT31;9308;48.550;9.108;2023-03-20T06:37:23;10.82;71.32
18361;SHT31;9308;48.550;9.108;2023-03-20T06:39:48;11.07;70.43
18361;SHT31;9308;48.550;9.108;2023-03-20T06:42:14;10.82;71.39
18361;SHT31;9308;48.550;9.108;2023-03-20T06:44:42;11.38;69.97
18361;SHT31;9308;48.550;9.108;2023-03-20T06:47:07;11.56;69.38
18361;SHT31;9308;48.550;9.108;2023-03-20T06:49:33;11.32;69.78
18361;SHT31;9308;48.550;9.108;2023-03-20T06:51:58;11.25;70.16
18361;SHT31;9308;48.550;9.108;2023-03-20T06:54:24;11.21;70.59
18361;SHT31;9308;48.550;9.108;2023-03-20T06:56:50;11.44;69.54
18361;SHT31;9308;48.550;9.108;2023-03-20T06:59:16;11.55;69.63
18361;SHT31;9308;48.550;9.108;2023-03-20T07:01:42;11.32;69.76
18361;SHT31;9308;48.550;9.108;2023-03-20T07:04:07;11.11;70.30
18361;SHT31;9308;48.550;9.108;2023-03-20T07:06:33;11.44;70.15
18361;SHT31;9308;48.550;9.108;2023-03-20T07:08:59;11.41;69.79
18361;SHT31;9308;48.550;9.108;2023-03-20T07:11:26;11.82;68.99
18361;SHT31;9308;48.550;9.108;2023-03-20T07:13:51;11.73;68.73
18361;SHT31;9308;48.550;9.108;2023-03-20T07:16:17;11.85;67.88
18361;SHT31;9308;48.550;9.108;2023-03-20T07:18:42;11.69;68.80
18361;SHT31;9308;48.550;9.108;2023-03-20T07:21:08;11.83;68.42
18361;SHT31;9308;48.550;9.108;2023-03-20T07:23:33;11.89;67.85
18361;SHT31;9308;48.550;9.108;2023-03-20T07:25:59;12.11;67.15
18361;SHT31;9308;48.550;9.108;2023-03-20T07:28:25;12.23;67.16
18361;SHT31;9308;48.550;9.108;2023-03-20T07:30:51;12.05;67.33
18361;SHT31;9308;48.550;9.108;2023-03-20T07:33:16;11.75;67.40
18361;SHT31;9308;48.550;9.108;2023-03-20T07:35:42;11.73;67.94
18361;SHT31;9308;48.550;9.108;2023-03-20T07:38:08;11.58;68.93
18361;SHT31;9308;48.550;9.108;2023-03-20T07:40:33;11.51;69.18
18361;SHT31;9308;48.550;9.108;2023-03-20T07:43:00;11.66;68.88
18361;SHT31;9308;48.550;9.108;2023-03-20T07:45:25;11.69;68.83
18361;SHT31;9308;48.550;9.108;2023-03-20T07:47:51;12.08;67.40
18361;SHT31;9308;48.550;9.108;2023-03-20T07:50:16;11.63;67.41
18361;SHT31;9308;48.550;9.108;2023-03-20T07:52:48;11.52;68.03
18361;SHT31;9308;48.550;9.108;2023-03-20T07:55:15;11.45;68.46
18361;SHT31;9308;48.550;9.108;2023-03-20T07:57:41;11.62;67.72
18361;SHT31;9308;48.550;9.108;2023-03-20T08:00:07;11.77;68.00
18361;SHT31;9308;48.550;9.108;2023-03-20T08:02:33;12.04;67.00
18361;SHT31;9308;48.550;9.108;2023-03-20T08:04:59;12.20;66.65
18361;SHT31;9308;48.550;9.108;2023-03-20T08:07:24;12.23;66.83
18361;SHT31;9308;48.550;9.108;2023-03-20T08:09:50;12.24;66.62
18361;SHT31;9308;48.550;9.108;2023-03-20T08:12:17;12.14;66.79
18361;SHT31;9308;48.550;9.108;2023-03-20T08:14:42;12.49;66.09
18361;SHT31;9308;48.550;9.108;2023-03-20T08:17:08;12.59;65.31
18361;SHT31;9308;48.550;9.108;2023-03-20T08:19:34;12.38;66.15
18361;SHT31;9308;48.550;9.108;2023-03-20T08:22:01;12.32;66.37
18361;SHT31;9308;48.550;9.108;2023-03-20T08:24:26;12.05;66.29
18361;SHT31;9308;48.550;9.108;2023-03-20T08:26:52;12.46;66.20
18361;SHT31;9308;48.550;9.108;2023-03-20T08:29:17;12.37;65.91
18361;SHT31;9308;48.550;9.108;2023-03-20T08:31:44;12.24;65.10
18361;SHT31;9308;48.550;9.108;2023-03-20T08:34:09;12.24;65.98
18361;SHT31;9308;48.550;9.108;2023-03-20T08:36:35;12.48;64.98
18361;SHT31;9308;48.550;9.108;2023-03-20T08:39:00;12.41;65.28
18361;SHT31;9308;48.550;9.108;2023-03-20T08:41:26;12.58;64.78
18361;SHT31;9308;48.550;9.108;2023-03-20T08:43:51;12.44;65.50
18361;SHT31;9308;48.550;9.108;2023-03-20T08:46:17;12.34;65.32
18361;SHT31;9308;48.550;9.108;2023-03-20T08:48:42;12.38;64.85
18361;SHT31;9308;48.550;9.108;2023-03-20T08:51:08;12.75;64.12
18361;SHT31;9308;48.550;9.108;2023-03-20T08:53:34;12.93;63.33
18361;SHT31;9308;48.550;9.108;2023-03-20T08:55:59;12.58;63.19
18361;SHT31;9308;48.550;9.108;2023-03-20T08:58:26;12.65;63.10
18361;SHT31;9308;48.550;9.108;2023-03-20T09:00:51;12.87;62.75
18361;SHT31;9308;48.550;9.108;2023-03-20T09:03:18;12.89;62.88
18361;SHT31;9308;48.550;9.108;2023-03-20T09:05:46;13.34;62.05
18361;SHT31;9308;48.550;9.108;2023-03-20T09:08:12;13.66;62.06
18361;SHT31;9308;48.550;9.108;2023-03-20T09:10:38;13.41;61.38
18361;SHT31;9308;48.550;9.108;2023-03-20T09:13:05;13.71;60.96
18361;SHT31;9308;48.550;9.108;2023-03-20T09:15:31;13.76;60.71
18361;SHT31;9308;48.550;9.108;2023-03-20T09:17:57;13.89;60.65
18361;SHT31;9308;48.550;9.108;2023-03-20T09:20:22;13.90;59.91
18361;SHT31;9308;48.550;9.108;2023-03-20T09:22:48;13.99;59.12
18361;SHT31;9308;48.550;9.108;2023-03-20T09:25:13;14.32;58.74
18361;SHT31;9308;48.550;9.108;2023-03-20T09:27:39;14.27;57.58
18361;SHT31;9308;48.550;9.108;2023-03-20T09:30:06;14.21;58.13
18361;SHT31;9308;48.550;9.108;2023-03-20T09:32:33;13.99;57.76
18361;SHT31;9308;48.550;9.108;2023-03-20T09:35:00;14.11;58.22
18361;SHT31;9308;48.550;9.108;2023-03-20T09:37:26;14.01;57.74
18361;SHT31;9308;48.550;9.108;2023-03-20T09:39:52;13.46;58.48
18361;SHT31;9308;48.550;9.108;2023-03-20T09:42:46;14.01;58.43
18361;SHT31;9308;48.550;9.108;2023-03-20T09:45:21;13.73;57.91
18361;SHT31;9308;48.550;9.108;2023-03-20T09:48:01;13.81;58.01
18361;SHT31;9308;48.550;9.108;2023-03-20T09:50:35;13.86;58.58
18361;SHT31;9308;48.550;9.108;2023-03-20T09:53:28;13.79;58.50
18361;SHT31;9308;48.550;9.108;2023-03-20T09:55:56;13.59;57.99
18361;SHT31;9308;48.550;9.108;2023-03-20T09:58:29;13.39;58.32
18361;SHT31;9308;48.550;9.108;2023-03-20T10:00:57;13.55;57.16
18361;SHT31;9308;48.550;9.108;2023-03-20T10:03:27;13.61;57.25
18361;SHT31;9308;48.550;9.108;2023-03-20T10:05:59;13.62;57.40
18361;SHT31;9308;48.550;9.108;2023-03-20T10:08:33;13.39;57.72
18361;SHT31;9308;48.550;9.108;2023-03-20T10:11:52;13.25;58.93
18361;SHT31;9308;48.550;9.108;2023-03-20T10:19:29;13.42;57.95
18361;SHT31;9308;48.550;9.108;2023-03-20T10:22:05;13.73;57.39
18361;SHT31;9308;48.550;9.108;2023-03-20T10:24:38;13.63;56.82
18361;SHT31;9308;48.550;9.108;2023-03-20T10:27:13;13.45;57.65
18361;SHT31;9308;48.550;9.108;2023-03-20T10:32:35;13.55;57.33
18361;SHT31;9308;48.550;9.108;2023-03-20T10:40:34;13.02;57.14
18361;SHT31;9308;48.550;9.108;2023-03-20T10:43:17;12.99;57.71
18361;SHT31;9308;48.550;9.108;2023-03-20T10:45:48;13.04;58.24
18361;SHT31;9308;48.550;9.108;2023-03-20T10:48:20;13.04;58.80
18361;SHT31;9308;48.550;9.108;2023-03-20T10:50:51;12.95;57.61
18361;SHT31;9308;48.550;9.108;2023-03-20T10:53:24;13.03;56.98
18361;SHT31;9308;48.550;9.108;2023-03-20T10:55:53;13.13;56.16
18361;SHT31;9308;48.550;9.108;2023-03-20T10:58:25;13.18;55.74
18361;SHT31;9308;48.550;9.108;2023-03-20T11:00:54;13.61;54.82
18361;SHT31;9308;48.550;9.108;2023-03-20T11:03:22;14.79;52.69
18361;SHT31;9308;48.550;9.108;2023-03-20T11:05:52;15.66;51.23
18361;SHT31;9308;48.550;9.108;2023-03-20T11:08:23;16.28;48.77
18361;SHT31;9308;48.550;9.108;2023-03-20T11:11:00;16.41;48.21
18361;SHT31;9308;48.550;9.108;2023-03-20T11:13:33;16.34;48.02
18361;SHT31;9308;48.550;9.108;2023-03-20T11:18:42;16.77;46.01
18361;SHT31;9308;48.550;9.108;2023-03-20T11:21:25;16.96;45.83
18361;SHT31;9308;48.550;9.108;2023-03-20T11:23:51;16.68;46.46
18361;SHT31;9308;48.550;9.108;2023-03-20T11:26:37;16.72;46.40
18361;SHT31;9308;48.550;9.108;2023-03-20T11:29:16;16.76;45.35
18361;SHT31;9308;48.550;9.108;2023-03-20T11:31:44;16.56;46.24
18361;SHT31;9308;48.550;9.108;2023-03-20T11:36:39;16.16;46.55
18361;SHT31;9308;48.550;9.108;2023-03-20T11:39:21;15.99;48.27
18361;SHT31;9308;48.550;9.108;2023-03-20T11:41:51;16.01;47.58
18361;SHT31;9308;48.550;9.108;2023-03-20T11:44:25;15.89;48.72
18361;SHT31;9308;48.550;9.108;2023-03-20T11:47:19;15.86;48.59
18361;SHT31;9308;48.550;9.108;2023-03-20T11:49:58;15.80;47.72
18361;SHT31;9308;48.550;9.108;2023-03-20T11:52:26;15.69;48.21
18361;SHT31;9308;48.550;9.108;2023-03-20T11:54:55;15.35;49.38
18361;SHT31;9308;48.550;9.108;2023-03-20T11:57:32;15.20;49.44
18361;SHT31;9308;48.550;9.108;2023-03-20T12:00:25;15.14;49.09
18361;SHT31;9308;48.550;9.108;2023-03-20T12:02:52;15.17;49.79
18361;SHT31;9308;48.550;9.108;2023-03-20T12:05:28;15.18;50.68
18361;SHT31;9308;48.550;9.108;2023-03-20T12:07:57;14.89;50.79
18361;SHT31;9308;48.550;9.108;2023-03-20T12:10:29;14.72;50.97
18361;SHT31;9308;48.550;9.108;2023-03-20T12:13:03;14.62;50.85
18361;SHT31;9308;48.550;9.108;2023-03-20T12:15:34;15.06;50.68
18361;SHT31;9308;48.550;9.108;2023-03-20T12:20:53;14.73;50.63
18361;SHT31;9308;48.550;9.108;2023-03-20T12:23:30;15.04;50.45
18361;SHT31;9308;48.550;9.108;2023-03-20T12:26:03;15.24;50.61
18361;SHT31;9308;48.550;9.108;2023-03-20T12:36:42;16.68;47.54
18361;SHT31;9308;48.550;9.108;2023-03-20T12:39:14;17.58;46.34
18361;SHT31;9308;48.550;9.108;2023-03-20T12:45:11;17.99;44.55
18361;SHT31;9308;48.550;9.108;2023-03-20T12:48:06;17.31;45.24
18361;SHT31;9308;48.550;9.108;2023-03-20T12:56:25;15.99;48.10
18361;SHT31;9308;48.550;9.108;2023-03-20T13:01:54;18.02;43.57
18361;SHT31;9308;48.550;9.108;2023-03-20T13:07:03;19.37;41.97
18361;SHT31;9308;48.550;9.108;2023-03-20T13:10:19;19.48;40.28
18361;SHT31;9308;48.550;9.108;2023-03-20T13:12:39;18.73;42.51
18361;SHT31;9308;48.550;9.108;2023-03-20T13:15:33;18.89;42.28
18361;SHT31;9308;48.550;9.108;2023-03-20T13:18:12;18.57;41.58
18361;SHT31;9308;48.550;9.108;2023-03-20T13:20:54;18.07;43.33
18361;SHT31;9308;48.550;9.108;2023-03-20T13:23:29;17.28;45.17
18361;SHT31;9308;48.550;9.108;2023-03-20T13:26:23;17.07;45.60
18361;SHT31;9308;48.550;9.108;2023-03-20T13:28:59;16.49;45.79
18361;SHT31;9308;48.550;9.108;2023-03-20T13:31:52;16.40;47.05
18361;SHT31;9308;48.550;9.108;2023-03-20T13:34:29;16.06;47.38
18361;SHT31;9308;48.550;9.108;2023-03-20T13:37:18;15.71;48.74
18361;SHT31;9308;48.550;9.108;2023-03-20T13:40:02;15.44;49.55
18361;SHT31;9308;48.550;9.108;2023-03-20T13:42:36;15.61;49.12
18361;SHT31;9308;48.550;9.108;2023-03-20T13:45:06;15.52;48.71
18361;SHT31;9308;48.550;9.108;2023-03-20T13:47:37;15.76;48.67
18361;SHT31;9308;48.550;9.108;2023-03-20T13:50:35;16.75;46.47
18361;SHT31;9308;48.550;9.108;2023-03-20T13:53:20;19.79;40.27
18361;SHT31;9308;48.550;9.108;2023-03-20T13:58:52;23.93;33.50
18361;SHT31;9308;48.550;9.108;2023-03-20T14:02:04;22.29;35.16
18361;SHT31;9308;48.550;9.108;2023-03-20T14:04:31;22.02;36.63
18361;SHT31;9308;48.550;9.108;2023-03-20T14:06:58;25.08;31.78
18361;SHT31;9308;48.550;9.108;2023-03-20T14:09:34;23.42;34.11
18361;SHT31;9308;48.550;9.108;2023-03-20T14:12:11;22.56;35.18
18361;SHT31;9308;48.550;9.108;2023-03-20T14:14:49;21.39;36.70
18361;SHT31;9308;48.550;9.108;2023-03-20T14:19:44;20.94;37.26
18361;SHT31;9308;48.550;9.108;2023-03-20T14:22:27;19.30;39.62
18361;SHT31;9308;48.550;9.108;2023-03-20T14:24:56;19.11;39.48
18361;SHT31;9308;48.550;9.108;2023-03-20T14:27:25;21.26;35.99
18361;SHT31;9308;48.550;9.108;2023-03-20T14:29:51;21.09;35.60
18361;SHT31;9308;48.550;9.108;2023-03-20T14:34:52;18.58;40.64
18361;SHT31;9308;48.550;9.108;2023-03-20T14:40:28;17.67;43.94
18361;SHT31;9308;48.550;9.108;2023-03-20T14:43:01;17.75;42.95
18361;SHT31;9308;48.550;9.108;2023-03-20T14:45:37;17.62;42.41
18361;SHT31;9308;48.550;9.108;2023-03-20T14:50:40;17.20;44.38
18361;SHT31;9308;48.550;9.108;2023-03-20T14:53:23;16.86;45.14
18361;SHT31;9308;48.550;9.108;2023-03-20T14:59:07;16.48;45.42
18361;SHT31;9308;48.550;9.108;2023-03-20T15:01:39;15.90;46.38
18361;SHT31;9308;48.550;9.108;2023-03-20T15:04:15;16.00;46.58
18361;SHT31;9308;48.550;9.108;2023-03-20T15:06:47;16.01;46.15
18361;SHT31;9308;48.550;9.108;2023-03-20T15:09:14;16.20;46.17
18361;SHT31;9308;48.550;9.108;2023-03-20T15:11:41;16.01;46.54
18361;SHT31;9308;48.550;9.108;2023-03-20T15:14:08;15.99;47.04
18361;SHT31;9308;48.550;9.108;2023-03-20T15:16:36;16.10;46.54
18361;SHT31;9308;48.550;9.108;2023-03-20T15:19:08;15.75;46.51
18361;SHT31;9308;48.550;9.108;2023-03-20T15:21:40;15.76;46.94
18361;SHT31;9308;48.550;9.108;2023-03-20T15:24:06;15.30;47.90
18361;SHT31;9308;48.550;9.108;2023-03-20T15:26:33;14.93;48.76
18361;SHT31;9308;48.550;9.108;2023-03-20T15:29:05;14.72;50.10
18361;SHT31;9308;48.550;9.108;2023-03-20T15:31:33;14.95;49.91
18361;SHT31;9308;48.550;9.108;2023-03-20T15:34:01;14.76;50.15
18361;SHT31;9308;48.550;9.108;2023-03-20T15:36:32;14.73;49.89
18361;SHT31;9308;48.550;9.108;2023-03-20T15:39:21;14.95;50.57
18361;SHT31;9308;48.550;9.108;2023-03-20T15:41:56;14.90;49.79
18361;SHT31;9308;48.550;9.108;2023-03-20T15:44:24;14.72;50.54
18361;SHT31;9308;48.550;9.108;2023-03-20T15:46:57;14.83;49.77
18361;SHT31;9308;48.550;9.108;2023-03-20T15:49:25;14.93;50.49
18361;SHT31;9308;48.550;9.108;2023-03-20T15:51:51;14.97;50.19
18361;SHT31;9308;48.550;9.108;2023-03-20T15:54:19;15.38;49.78
18361;SHT31;9308;48.550;9.108;2023-03-20T15:56:46;15.35;50.10
18361;SHT31;9308;48.550;9.108;2023-03-20T15:59:14;15.03;49.93
18361;SHT31;9308;48.550;9.108;2023-03-20T16:01:43;15.13;50.41
18361;SHT31;9308;48.550;9.108;2023-03-20T16:04:13;14.82;50.35
18361;SHT31;9308;48.550;9.108;2023-03-20T16:06:58;14.49;50.90
18361;SHT31;9308;48.550;9.108;2023-03-20T16:09:24;14.54;50.63
18361;SHT31;9308;48.550;9.108;2023-03-20T16:11:59;14.69;51.22
18361;SHT31;9308;48.550;9.108;2023-03-20T16:14:32;14.55;50.46
18361;SHT31;9308;48.550;9.108;2023-03-20T16:17:00;14.82;50.21
18361;SHT31;9308;48.550;9.108;2023-03-20T16:19:28;14.34;50.54
18361;SHT31;9308;48.550;9.108;2023-03-20T16:21:59;14.49;49.74
18361;SHT31;9308;48.550;9.108;2023-03-20T16:24:28;14.72;49.70
18361;SHT31;9308;48.550;9.108;2023-03-20T16:26:54;14.57;49.93
18361;SHT31;9308;48.550;9.108;2023-03-20T16:29:22;14.59;50.36
18361;SHT31;9308;48.550;9.108;2023-03-20T16:31:55;14.96;49.69
18361;SHT31;9308;48.550;9.108;2023-03-20T16:34:29;14.73;50.48
18361;SHT31;9308;48.550;9.108;2023-03-20T16:36:58;14.73;50.88
18361;SHT31;9308;48.550;9.108;2023-03-20T16:39:27;14.75;50.69
18361;SHT31;9308;48.550;9.108;2023-03-20T16:42:13;14.71;50.86
18361;SHT31;9308;48.550;9.108;2023-03-20T16:44:41;14.71;51.48
18361;SHT31;9308;48.550;9.108;2023-03-20T16:50:08;14.79;51.36
18361;SHT31;9308;48.550;9.108;2023-03-20T16:52:37;15.07;50.38
18361;SHT31;9308;48.550;9.108;2023-03-20T16:55:03;15.00;50.63
18361;SHT31;9308;48.550;9.108;2023-03-20T16:57:34;14.72;51.66
18361;SHT31;9308;48.550;9.108;2023-03-20T17:00:07;14.45;51.66
18361;SHT31;9308;48.550;9.108;2023-03-20T17:02:48;14.49;51.73
18361;SHT31;9308;48.550;9.108;2023-03-20T17:05:18;14.28;52.52
18361;SHT31;9308;48.550;9.108;2023-03-20T17:07:48;14.10;52.75
18361;SHT31;9308;48.550;9.108;2023-03-20T17:12:40;13.87;53.49
18361;SHT31;9308;48.550;9.108;2023-03-20T17:15:06;13.87;53.57
18361;SHT31;9308;48.550;9.108;2023-03-20T17:17:32;13.54;53.95
18361;SHT31;9308;48.550;9.108;2023-03-20T17:19:58;13.58;53.79
18361;SHT31;9308;48.550;9.108;2023-03-20T17:22:26;13.52;53.93
18361;SHT31;9308;48.550;9.108;2023-03-20T17:24:54;13.18;54.84
18361;SHT31;9308;48.550;9.108;2023-03-20T17:27:20;13.54;54.15
18361;SHT31;9308;48.550;9.108;2023-03-20T17:29:46;13.39;54.95
18361;SHT31;9308;48.550;9.108;2023-03-20T17:32:16;13.36;55.01
18361;SHT31;9308;48.550;9.108;2023-03-20T17:34:42;13.56;55.59